sensor_id;sensor_type;location;lat;lon;timestamp;pressure;altitude;pressure_sealevel;temperature;humidity
61761;BME280;47664;51.660;-0.100;2022-10-12T00:02:29;101738.99;;;7.89;57.84
61761;BME280;47664;51.660;-0.100;2022-10-12T00:05:08;101740.68;;;8.34;56.49
61761;BME280;47664;51.660;-0.100;2022-10-12T00:07:45;101736.54;;;8.66;55.57
61761;BME280;47664;51.660;-0.100;2022-10-12T00:10:25;101735.54;;;9.02;55.09
61761;BME280;47664;51.660;-0.100;2022-10-12T00:13:12;101730.74;;;8.75;55.09
61761;BME280;47664;51.660;-0.100;2022-10-12T00:15:50;101726.44;;;8.73;54.76
61761;BME280;47664;51.660;-0.100;2022-10-12T00:18:28;101731.59;;;8.83;54.99
61761;BME280;47664;51.660;-0.100;2022-10-12T00:21:08;101732.73;;;8.63;56.18
61761;BME280;47664;51.660;-0.100;2022-10-12T00:23:46;101735.85;;;8.76;55.87
61761;BME280;47664;51.660;-0.100;2022-10-12T00:26:25;101733.12;;;8.97;55.47
61761;BME280;47664;51.660;-0.100;2022-10-12T00:29:04;101732.87;;;9.31;54.36
61761;BME280;47664;51.660;-0.100;2022-10-12T00:31:41;101733.28;;;9.50;53.57
61761;BME280;47664;51.660;-0.100;2022-10-12T00:34:19;101731.19;;;9.75;53.01
61761;BME280;47664;51.660;-0.100;2022-10-12T00:36:59;101731.85;;;9.52;53.52
61761;BME280;47664;51.660;-0.100;2022-10-12T00:39:37;101730.73;;;9.78;53.87
61761;BME280;47664;51.660;-0.100;2022-10-12T00:42:17;101730.53;;;9.27;53.94
61761;BME280;47664;51.660;-0.100;2022-10-12T00:44:55;101729.99;;;9.09;53.94
61761;BME280;47664;51.660;-0.100;2022-10-12T00:47:35;101727.27;;;8.83;55.36
61761;BME280;47664;51.660;-0.100;2022-10-12T00:50:19;101726.71;;;8.42;56.92
61761;BME280;47664;51.660;-0.100;2022-10-12T00:53:00;101730.45;;;7.87;58.39
61761;BME280;47664;51.660;-0.100;2022-10-12T00:55:50;101725.53;;;7.80;59.87
61761;BME280;47664;51.660;-0.100;2022-10-12T00:58:29;101726.19;;;7.87;59.58
61761;BME280;47664;51.660;-0.100;2022-10-12T01:01:06;101726.28;;;7.90;59.05
61761;BME280;47664;51.660;-0.100;2022-10-12T01:03:44;101724.75;;;8.53;57.28
61761;BME280;47664;51.660;-0.100;2022-10-12T01:06:23;101720.21;;;9.13;56.43
61761;BME280;47664;51.660;-0.100;2022-10-12T01:09:01;101722.87;;;8.57;57.02
61761;BME280;47664;51.660;-0.100;2022-10-12T01:11:39;101718.63;;;8.85;57.15
61761;BME280;47664;51.660;-0.100;2022-10-12T01:14:18;101713.70;;;9.05;55.70
61761;BME280;47664;51.660;-0.100;2022-10-12T01:16:59;101717.95;;;9.50;54.47
61761;BME280;47664;51.660;-0.100;2022-10-12T01:19:54;101712.11;;;9.35;54.61
61761;BME280;47664;51.660;-0.100;2022-10-12T01:22:43;101705.35;;;9.47;54.38
61761;BME280;47664;51.660;-0.100;2022-10-12T01:25:37;101702.28;;;9.63;54.09
61761;BME280;47664;51.660;-0.100;2022-10-12T01:28:25;101706.54;;;9.48;54.61
61761;BME280;47664;51.660;-0.100;2022-10-12T01:31:11;101708.66;;;9.35;54.86
61761;BME280;47664;51.660;-0.100;2022-10-12T01:33:56;101706.77;;;9.10;55.55
61761;BME280;47664;51.660;-0.100;2022-10-12T01:36:43;101699.02;;;8.99;56.54
61761;BME280;47664;51.660;-0.100;2022-10-12T01:39:27;101696.59;;;9.47;55.71
61761;BME280;47664;51.660;-0.100;2022-10-12T01:42:10;101693.47;;;8.89;55.30
61761;BME280;47664;51.660;-0.100;2022-10-12T01:44:59;101691.96;;;8.82;56.62
61761;BME280;47664;51.660;-0.100;2022-10-12T01:47:37;101695.33;;;7.83;59.21
61761;BME280;47664;51.660;-0.100;2022-10-12T01:50:16;101696.93;;;7.60;60.19
61761;BME280;47664;51.660;-0.100;2022-10-12T01:53:00;101699.17;;;7.35;60.37
61761;BME280;47664;51.660;-0.100;2022-10-12T01:55:44;101702.71;;;7.36;60.26
61761;BME280;47664;51.660;-0.100;2022-10-12T01:58:38;101699.11;;;6.83;60.54
61761;BME280;47664;51.660;-0.100;2022-10-12T02:01:25;101697.50;;;6.50;60.82
61761;BME280;47664;51.660;-0.100;2022-10-12T02:04:13;101692.21;;;7.28;59.24
61761;BME280;47664;51.660;-0.100;2022-10-12T02:06:58;101695.98;;;7.63;58.08
61761;BME280;47664;51.660;-0.100;2022-10-12T02:09:37;101695.94;;;8.03;56.45
61761;BME280;47664;51.660;-0.100;2022-10-12T02:12:19;101694.09;;;8.10;56.19
61761;BME280;47664;51.660;-0.100;2022-10-12T02:15:04;101690.70;;;8.27;55.84
61761;BME280;47664;51.660;-0.100;2022-10-12T02:17:45;101690.55;;;8.38;55.08
61761;BME280;47664;51.660;-0.100;2022-10-12T02:20:25;101684.91;;;8.31;55.57
61761;BME280;47664;51.660;-0.100;2022-10-12T02:23:03;101681.06;;;8.33;55.37
61761;BME280;47664;51.660;-0.100;2022-10-12T02:25:40;101675.19;;;8.50;55.05
61761;BME280;47664;51.660;-0.100;2022-10-12T02:28:20;101670.52;;;8.22;55.76
61761;BME280;47664;51.660;-0.100;2022-10-12T02:31:06;101667.17;;;8.24;56.18
61761;BME280;47664;51.660;-0.100;2022-10-12T02:33:48;101665.11;;;7.78;56.90
61761;BME280;47664;51.660;-0.100;2022-10-12T02:36:33;101663.66;;;7.26;58.87
61761;BME280;47664;51.660;-0.100;2022-10-12T02:39:15;101662.43;;;7.03;59.99
61761;BME280;47664;51.660;-0.100;2022-10-12T02:41:58;101663.12;;;7.43;58.70
61761;BME280;47664;51.660;-0.100;2022-10-12T02:44:39;101662.95;;;8.14;57.53
61761;BME280;47664;51.660;-0.100;2022-10-12T02:47:19;101656.08;;;7.95;56.33
61761;BME280;47664;51.660;-0.100;2022-10-12T02:50:00;101663.12;;;7.68;57.43
61761;BME280;47664;51.660;-0.100;2022-10-12T02:52:38;101658.27;;;7.85;57.63
61761;BME280;47664;51.660;-0.100;2022-10-12T02:55:16;101653.65;;;7.47;57.22
61761;BME280;47664;51.660;-0.100;2022-10-12T02:57:53;101655.27;;;6.83;58.80
61761;BME280;47664;51.660;-0.100;2022-10-12T03:00:31;101653.20;;;6.63;59.53
61761;BME280;47664;51.660;-0.100;2022-10-12T03:03:10;101649.95;;;7.05;59.84
61761;BME280;47664;51.660;-0.100;2022-10-12T03:05:48;101644.15;;;7.00;59.11
61761;BME280;47664;51.660;-0.100;2022-10-12T03:08:25;101641.59;;;8.29;56.98
61761;BME280;47664;51.660;-0.100;2022-10-12T03:11:05;101641.25;;;7.97;56.11
61761;BME280;47664;51.660;-0.100;2022-10-12T03:13:44;101643.58;;;7.90;55.65
61761;BME280;47664;51.660;-0.100;2022-10-12T03:16:21;101640.03;;;8.20;55.28
61761;BME280;47664;51.660;-0.100;2022-10-12T03:19:02;101632.16;;;8.02;55.49
61761;BME280;47664;51.660;-0.100;2022-10-12T03:21:39;101633.44;;;7.99;55.98
61761;BME280;47664;51.660;-0.100;2022-10-12T03:24:16;101637.46;;;7.96;55.51
61761;BME280;47664;51.660;-0.100;2022-10-12T03:26:54;101637.12;;;8.16;55.57
61761;BME280;47664;51.660;-0.100;2022-10-12T03:29:32;101637.60;;;8.15;54.85
61761;BME280;47664;51.660;-0.100;2022-10-12T03:32:10;101634.08;;;8.27;54.34
61761;BME280;47664;51.660;-0.100;2022-10-12T03:34:47;101633.82;;;7.68;55.56
61761;BME280;47664;51.660;-0.100;2022-10-12T03:37:24;101627.07;;;8.24;55.62
61761;BME280;47664;51.660;-0.100;2022-10-12T03:40:02;101622.52;;;8.28;54.48
61761;BME280;47664;51.660;-0.100;2022-10-12T03:42:39;101622.32;;;8.56;53.77
61761;BME280;47664;51.660;-0.100;2022-10-12T03:45:17;101617.91;;;8.62;53.35
61761;BME280;47664;51.660;-0.100;2022-10-12T03:47:59;101613.46;;;8.26;53.65
61761;BME280;47664;51.660;-0.100;2022-10-12T03:50:37;101609.35;;;8.63;53.40
61761;BME280;47664;51.660;-0.100;2022-10-12T03:53:17;101605.39;;;8.73;53.16
61761;BME280;47664;51.660;-0.100;2022-10-12T03:55:54;101608.71;;;8.63;53.01
61761;BME280;47664;51.660;-0.100;2022-10-12T03:58:32;101608.39;;;9.10;52.77
61761;BME280;47664;51.660;-0.100;2022-10-12T04:01:09;101607.79;;;8.98;53.21
61761;BME280;47664;51.660;-0.100;2022-10-12T04:03:46;101601.41;;;8.48;53.68
61761;BME280;47664;51.660;-0.100;2022-10-12T04:06:24;101596.96;;;8.79;53.72
61761;BME280;47664;51.660;-0.100;2022-10-12T04:09:02;101590.22;;;8.67;53.95
61761;BME280;47664;51.660;-0.100;2022-10-12T04:11:40;101590.49;;;8.49;53.88
61761;BME280;47664;51.660;-0.100;2022-10-12T04:14:17;101589.13;;;8.72;53.67
61761;BME280;47664;51.660;-0.100;2022-10-12T04:16:57;101585.22;;;8.63;53.88
61761;BME280;47664;51.660;-0.100;2022-10-12T04:19:35;101578.19;;;8.58;53.87
61761;BME280;47664;51.660;-0.100;2022-10-12T04:22:15;101575.41;;;8.53;53.66
61761;BME280;47664;51.660;-0.100;2022-10-12T04:24:52;101576.76;;;8.39;54.56
61761;BME280;47664;51.660;-0.100;2022-10-12T04:27:30;101581.98;;;7.53;57.05
61761;BME280;47664;51.660;-0.100;2022-10-12T04:30:11;101578.60;;;7.70;57.20
61761;BME280;47664;51.660;-0.100;2022-10-12T04:32:49;101558.58;;;7.44;58.15
61761;BME280;47664;51.660;-0.100;2022-10-12T04:35:27;101562.89;;;7.35;58.46
61761;BME280;47664;51.660;-0.100;2022-10-12T04:38:05;101539.76;;;7.21;58.67
61761;BME280;47664;51.660;-0.100;2022-10-12T04:40:44;101555.19;;;7.15;59.22
61761;BME280;47664;51.660;-0.100;2022-10-12T04:43:22;101541.00;;;7.50;58.04
61761;BME280;47664;51.660;-0.100;2022-10-12T04:46:00;101553.65;;;7.34;58.72
61761;BME280;47664;51.660;-0.100;2022-10-12T04:48:36;101556.35;;;7.73;57.92
61761;BME280;47664;51.660;-0.100;2022-10-12T04:51:13;101548.85;;;7.96;57.70
61761;BME280;47664;51.660;-0.100;2022-10-12T04:53:51;101560.08;;;7.26;58.16
61761;BME280;47664;51.660;-0.100;2022-10-12T04:56:33;101557.83;;;6.08;59.67
61761;BME280;47664;51.660;-0.100;2022-10-12T04:59:11;101552.59;;;6.56;58.36
61761;BME280;47664;51.660;-0.100;2022-10-12T05:01:48;101548.31;;;5.67;60.31
61761;BME280;47664;51.660;-0.100;2022-10-12T05:04:25;101547.40;;;5.48;61.77
61761;BME280;47664;51.660;-0.100;2022-10-12T05:07:02;101546.20;;;5.99;61.20
61761;BME280;47664;51.660;-0.100;2022-10-12T05:09:39;101547.38;;;6.74;59.66
61761;BME280;47664;51.660;-0.100;2022-10-12T05:12:16;101551.06;;;6.40;59.58
61761;BME280;47664;51.660;-0.100;2022-10-12T05:14:55;101555.10;;;6.60;59.00
61761;BME280;47664;51.660;-0.100;2022-10-12T05:17:33;101563.44;;;6.87;59.24
61761;BME280;47664;51.660;-0.100;2022-10-12T05:20:12;101569.68;;;6.57;59.34
61761;BME280;47664;51.660;-0.100;2022-10-12T05:22:50;101574.72;;;6.78;59.27
61761;BME280;47664;51.660;-0.100;2022-10-12T05:25:27;101574.42;;;7.16;58.35
61761;BME280;47664;51.660;-0.100;2022-10-12T05:28:05;101566.17;;;7.39;57.99
61761;BME280;47664;51.660;-0.100;2022-10-12T05:30:43;101563.11;;;7.50;57.95
61761;BME280;47664;51.660;-0.100;2022-10-12T05:33:20;101556.90;;;7.81;57.74
61761;BME280;47664;51.660;-0.100;2022-10-12T05:35:57;101550.36;;;8.21;56.82
61761;BME280;47664;51.660;-0.100;2022-10-12T05:38:34;101546.16;;;8.01;57.24
61761;BME280;47664;51.660;-0.100;2022-10-12T05:41:12;101544.33;;;8.01;57.28
61761;BME280;47664;51.660;-0.100;2022-10-12T05:43:49;101539.57;;;7.72;57.74
61761;BME280;47664;51.660;-0.100;2022-10-12T05:46:27;101536.68;;;8.27;57.42
61761;BME280;47664;51.660;-0.100;2022-10-12T05:49:04;101533.98;;;8.33;57.75
61761;BME280;47664;51.660;-0.100;2022-10-12T05:51:41;101534.50;;;8.41;56.94
61761;BME280;47664;51.660;-0.100;2022-10-12T05:54:18;101528.57;;;8.88;56.85
61761;BME280;47664;51.660;-0.100;2022-10-12T05:56:55;101531.18;;;8.73;57.21
61761;BME280;47664;51.660;-0.100;2022-10-12T05:59:32;101534.70;;;8.84;57.06
61761;BME280;47664;51.660;-0.100;2022-10-12T06:02:10;101533.06;;;8.86;57.36
61761;BME280;47664;51.660;-0.100;2022-10-12T06:04:50;101538.08;;;8.43;57.09
61761;BME280;47664;51.660;-0.100;2022-10-12T06:07:28;101534.98;;;8.30;57.73
61761;BME280;47664;51.660;-0.100;2022-10-12T06:10:05;101529.82;;;8.88;57.15
61761;BME280;47664;51.660;-0.100;2022-10-12T06:12:43;101530.94;;;8.38;56.74
61761;BME280;47664;51.660;-0.100;2022-10-12T06:15:20;101540.01;;;9.00;56.82
61761;BME280;47664;51.660;-0.100;2022-10-12T06:17:58;101536.93;;;8.71;56.78
61761;BME280;47664;51.660;-0.100;2022-10-12T06:20:35;101539.14;;;8.84;56.47
61761;BME280;47664;51.660;-0.100;2022-10-12T06:23:13;101533.21;;;9.17;56.23
61761;BME280;47664;51.660;-0.100;2022-10-12T06:25:53;101528.44;;;9.06;56.06
61761;BME280;47664;51.660;-0.100;2022-10-12T06:28:30;101532.87;;;9.15;56.51
61761;BME280;47664;51.660;-0.100;2022-10-12T06:31:07;101526.84;;;8.99;56.71
61761;BME280;47664;51.660;-0.100;2022-10-12T06:33:45;101528.94;;;8.84;57.32
61761;BME280;47664;51.660;-0.100;2022-10-12T06:36:22;101523.22;;;9.25;57.34
61761;BME280;47664;51.660;-0.100;2022-10-12T06:38:59;101528.72;;;8.99;58.58
61761;BME280;47664;51.660;-0.100;2022-10-12T06:41:42;101534.14;;;8.79;59.19
61761;BME280;47664;51.660;-0.100;2022-10-12T06:44:19;101534.02;;;8.88;59.29
61761;BME280;47664;51.660;-0.100;2022-10-12T06:46:57;101530.49;;;8.88;59.43
61761;BME280;47664;51.660;-0.100;2022-10-12T06:49:33;101526.36;;;8.64;60.08
61761;BME280;47664;51.660;-0.100;2022-10-12T06:52:11;101523.56;;;8.71;60.00
61761;BME280;47664;51.660;-0.100;2022-10-12T06:54:48;101521.28;;;8.58;60.50
61761;BME280;47664;51.660;-0.100;2022-10-12T06:57:25;101519.91;;;8.89;59.85
61761;BME280;47664;51.660;-0.100;2022-10-12T07:00:04;101521.12;;;8.86;59.95
61761;BME280;47664;51.660;-0.100;2022-10-12T07:02:41;101524.34;;;9.03;59.53
61761;BME280;47664;51.660;-0.100;2022-10-12T07:05:18;101528.68;;;9.22;59.29
61761;BME280;47664;51.660;-0.100;2022-10-12T07:07:56;101525.99;;;8.87;59.16
61761;BME280;47664;51.660;-0.100;2022-10-12T07:10:36;101525.39;;;8.97;59.15
61761;BME280;47664;51.660;-0.100;2022-10-12T07:13:13;101527.00;;;8.83;59.70
61761;BME280;47664;51.660;-0.100;2022-10-12T07:15:53;101526.34;;;8.75;59.49
61761;BME280;47664;51.660;-0.100;2022-10-12T07:18:31;101526.25;;;8.92;59.60
61761;BME280;47664;51.660;-0.100;2022-10-12T07:21:08;101520.88;;;8.92;59.42
61761;BME280;47664;51.660;-0.100;2022-10-12T07:23:45;101517.35;;;9.20;59.20
61761;BME280;47664;51.660;-0.100;2022-10-12T07:26:27;101515.31;;;8.62;59.99
61761;BME280;47664;51.660;-0.100;2022-10-12T07:29:07;101512.31;;;9.16;59.45
61761;BME280;47664;51.660;-0.100;2022-10-12T07:31:44;101516.02;;;9.08;59.19
61761;BME280;47664;51.660;-0.100;2022-10-12T07:34:24;101517.07;;;8.94;59.46
61761;BME280;47664;51.660;-0.100;2022-10-12T07:37:02;101516.32;;;9.24;59.91
61761;BME280;47664;51.660;-0.100;2022-10-12T07:39:39;101516.97;;;9.42;59.76
61761;BME280;47664;51.660;-0.100;2022-10-12T07:42:16;101517.57;;;9.17;59.22
61761;BME280;47664;51.660;-0.100;2022-10-12T07:44:54;101521.34;;;9.10;59.78
61761;BME280;47664;51.660;-0.100;2022-10-12T07:47:32;101520.88;;;9.17;59.47
61761;BME280;47664;51.660;-0.100;2022-10-12T07:50:10;101519.04;;;9.17;59.66
61761;BME280;47664;51.660;-0.100;2022-10-12T07:52:47;101516.64;;;9.24;59.58
61761;BME280;47664;51.660;-0.100;2022-10-12T07:55:24;101514.24;;;9.61;58.78
61761;BME280;47664;51.660;-0.100;2022-10-12T07:58:01;101517.34;;;9.61;58.74
61761;BME280;47664;51.660;-0.100;2022-10-12T08:00:39;101509.91;;;9.74;58.63
61761;BME280;47664;51.660;-0.100;2022-10-12T08:03:16;101506.56;;;9.61;58.90
61761;BME280;47664;51.660;-0.100;2022-10-12T08:05:54;101499.46;;;9.47;59.59
61761;BME280;47664;51.660;-0.100;2022-10-12T08:08:36;101496.76;;;9.82;59.12
61761;BME280;47664;51.660;-0.100;2022-10-12T08:11:14;101500.33;;;9.57;59.05
61761;BME280;47664;51.660;-0.100;2022-10-12T08:13:52;101505.04;;;10.15;58.60
61761;BME280;47664;51.660;-0.100;2022-10-12T08:16:29;101503.00;;;10.23;58.49
61761;BME280;47664;51.660;-0.100;2022-10-12T08:19:07;101499.86;;;10.48;57.68
61761;BME280;47664;51.660;-0.100;2022-10-12T08:21:44;101494.31;;;10.61;57.31
61761;BME280;47664;51.660;-0.100;2022-10-12T08:24:21;101490.16;;;11.06;57.12
61761;BME280;47664;51.660;-0.100;2022-10-12T08:26:59;101486.40;;;10.56;57.00
61761;BME280;47664;51.660;-0.100;2022-10-12T08:29:37;101481.80;;;10.63;57.04
61761;BME280;47664;51.660;-0.100;2022-10-12T08:32:15;101483.85;;;10.91;56.77
61761;BME280;47664;51.660;-0.100;2022-10-12T08:34:54;101486.11;;;10.88;56.96
61761;BME280;47664;51.660;-0.100;2022-10-12T08:37:34;101481.43;;;11.13;56.94
61761;BME280;47664;51.660;-0.100;2022-10-12T08:40:13;101484.20;;;11.55;56.34
61761;BME280;47664;51.660;-0.100;2022-10-12T08:42:58;101478.30;;;11.08;56.00
61761;BME280;47664;51.660;-0.100;2022-10-12T08:45:52;101474.35;;;11.41;56.24
61761;BME280;47664;51.660;-0.100;2022-10-12T08:48:33;101475.65;;;11.14;55.88
61761;BME280;47664;51.660;-0.100;2022-10-12T08:51:16;101477.97;;;11.89;55.28
61761;BME280;47664;51.660;-0.100;2022-10-12T08:53:57;101471.66;;;11.81;54.93
61761;BME280;47664;51.660;-0.100;2022-10-12T08:56:38;101470.29;;;12.48;53.12
61761;BME280;47664;51.660;-0.100;2022-10-12T08:59:20;101468.32;;;12.94;52.58
61761;BME280;47664;51.660;-0.100;2022-10-12T09:02:07;101471.84;;;12.94;52.62
61761;BME280;47664;51.660;-0.100;2022-10-12T09:04:57;101476.60;;;12.62;52.43
61761;BME280;47664;51.660;-0.100;2022-10-12T09:07:40;101472.80;;;12.18;53.28
61761;BME280;47664;51.660;-0.100;2022-10-12T09:10:28;101470.82;;;12.27;53.40
61761;BME280;47664;51.660;-0.100;2022-10-12T09:13:17;101470.21;;;11.81;54.54
61761;BME280;47664;51.660;-0.100;2022-10-12T09:16:02;101472.31;;;11.56;55.45
61761;BME280;47664;51.660;-0.100;2022-10-12T09:18:42;101468.85;;;12.32;54.24
61761;BME280;47664;51.660;-0.100;2022-10-12T09:21:23;101465.74;;;12.05;53.92
61761;BME280;47664;51.660;-0.100;2022-10-12T09:24:02;101466.75;;;12.21;54.44
61761;BME280;47664;51.660;-0.100;2022-10-12T09:26:41;101468.12;;;12.23;54.26
61761;BME280;47664;51.660;-0.100;2022-10-12T09:29:32;101463.39;;;11.87;55.02
61761;BME280;47664;51.660;-0.100;2022-10-12T09:33:11;101457.77;;;12.02;55.06
61761;BME280;47664;51.660;-0.100;2022-10-12T09:35:51;101463.58;;;11.92;54.30
61761;BME280;47664;51.660;-0.100;2022-10-12T09:38:28;101463.14;;;12.11;54.19
61761;BME280;47664;51.660;-0.100;2022-10-12T09:41:10;101466.23;;;12.33;53.59
61761;BME280;47664;51.660;-0.100;2022-10-12T09:43:48;101474.35;;;12.41;53.79
61761;BME280;47664;51.660;-0.100;2022-10-12T09:46:36;101476.00;;;12.72;53.43
61761;BME280;47664;51.660;-0.100;2022-10-12T09:49:19;101475.04;;;12.66;52.83
61761;BME280;47664;51.660;-0.100;2022-10-12T09:52:03;101478.26;;;12.86;53.08
61761;BME280;47664;51.660;-0.100;2022-10-12T09:54:45;101479.23;;;12.76;53.32
61761;BME280;47664;51.660;-0.100;2022-10-12T09:57:24;101471.89;;;12.88;52.74
61761;BME280;47664;51.660;-0.100;2022-10-12T10:00:05;101469.71;;;12.98;53.08
61761;BME280;47664;51.660;-0.100;2022-10-12T10:02:52;101471.72;;;13.12;52.54
61761;BME280;47664;51.660;-0.100;2022-10-12T10:05:31;101468.36;;;13.38;51.65
61761;BME280;47664;51.660;-0.100;2022-10-12T10:08:22;101471.40;;;13.34;52.49
61761;BME280;47664;51.660;-0.100;2022-10-12T10:11:01;101473.51;;;13.74;51.56
61761;BME280;47664;51.660;-0.100;2022-10-12T10:13:45;101476.49;;;13.68;52.06
61761;BME280;47664;51.660;-0.100;2022-10-12T10:16:25;101469.92;;;13.71;51.59
61761;BME280;47664;51.660;-0.100;2022-10-12T10:19:03;101482.85;;;13.59;51.31
61761;BME280;47664;51.660;-0.100;2022-10-12T10:21:42;101476.66;;;13.91;51.19
61761;BME280;47664;51.660;-0.100;2022-10-12T10:24:28;101472.45;;;14.07;50.78
61761;BME280;47664;51.660;-0.100;2022-10-12T10:27:10;101465.18;;;13.79;51.01
61761;BME280;47664;51.660;-0.100;2022-10-12T10:30:23;101465.48;;;13.87;51.60
61761;BME280;47664;51.660;-0.100;2022-10-12T10:33:13;101467.26;;;13.67;51.01
61761;BME280;47664;51.660;-0.100;2022-10-12T10:35:59;101464.61;;;13.61;51.58
61761;BME280;47664;51.660;-0.100;2022-10-12T10:38:52;101463.94;;;13.70;51.74
61761;BME280;47664;51.660;-0.100;2022-10-12T10:41:35;101464.34;;;13.28;52.03
61761;BME280;47664;51.660;-0.100;2022-10-12T10:44:26;101462.34;;;14.36;50.99
61761;BME280;47664;51.660;-0.100;2022-10-12T10:47:07;101459.76;;;14.12;50.67
61761;BME280;47664;51.660;-0.100;2022-10-12T10:49:48;101449.73;;;13.78;50.84
61761;BME280;47664;51.660;-0.100;2022-10-12T10:52:27;101443.93;;;14.03;51.01
61761;BME280;47664;51.660;-0.100;2022-10-12T10:55:24;101435.80;;;14.25;50.56
61761;BME280;47664;51.660;-0.100;2022-10-12T10:58:09;101429.03;;;14.20;50.87
61761;BME280;47664;51.660;-0.100;2022-10-12T11:00:59;101420.35;;;14.87;49.61
61761;BME280;47664;51.660;-0.100;2022-10-12T11:03:49;101413.96;;;14.90;49.43
61761;BME280;47664;51.660;-0.100;2022-10-12T11:06:36;101406.65;;;14.56;50.45
61761;BME280;47664;51.660;-0.100;2022-10-12T11:09:19;101394.77;;;14.23;50.22
61761;BME280;47664;51.660;-0.100;2022-10-12T11:12:01;101388.33;;;14.31;50.26
61761;BME280;47664;51.660;-0.100;2022-10-12T11:14:42;101383.92;;;14.92;50.06
61761;BME280;47664;51.660;-0.100;2022-10-12T11:17:29;101381.93;;;14.54;50.31
61761;BME280;47664;51.660;-0.100;2022-10-12T11:20:23;101374.02;;;14.60;50.19
61761;BME280;47664;51.660;-0.100;2022-10-12T11:23:14;101364.37;;;14.29;50.54
61761;BME280;47664;51.660;-0.100;2022-10-12T11:26:06;101357.61;;;14.51;50.36
61761;BME280;47664;51.660;-0.100;2022-10-12T11:28:49;101358.10;;;14.65;50.68
61761;BME280;47664;51.660;-0.100;2022-10-12T11:31:30;101348.50;;;14.52;50.51
61761;BME280;47664;51.660;-0.100;2022-10-12T11:34:11;101348.77;;;14.39;50.34
61761;BME280;47664;51.660;-0.100;2022-10-12T11:36:57;101364.02;;;14.47;50.66
61761;BME280;47664;51.660;-0.100;2022-10-12T11:39:37;101359.43;;;14.46;50.28
61761;BME280;47664;51.660;-0.100;2022-10-12T11:42:19;101356.54;;;14.57;50.20
61761;BME280;47664;51.660;-0.100;2022-10-12T11:45:01;101350.15;;;14.53;50.49
61761;BME280;47664;51.660;-0.100;2022-10-12T11:47:43;101348.39;;;14.87;50.08
61761;BME280;47664;51.660;-0.100;2022-10-12T11:50:29;101350.94;;;14.88;49.74
61761;BME280;47664;51.660;-0.100;2022-10-12T11:53:13;101357.22;;;14.76;49.88
61761;BME280;47664;51.660;-0.100;2022-10-12T11:56:05;101359.19;;;14.97;49.91
61761;BME280;47664;51.660;-0.100;2022-10-12T11:58:46;101353.13;;;14.68;49.66
61761;BME280;47664;51.660;-0.100;2022-10-12T12:01:42;101347.48;;;15.11;49.09
61761;BME280;47664;51.660;-0.100;2022-10-12T12:04:27;101350.31;;;15.29;48.55
61761;BME280;47664;51.660;-0.100;2022-10-12T12:07:36;101348.02;;;15.70;48.72
61761;BME280;47664;51.660;-0.100;2022-10-12T12:11:34;101350.24;;;15.04;49.13
61761;BME280;47664;51.660;-0.100;2022-10-12T12:16:35;101349.65;;;15.66;49.52
61761;BME280;47664;51.660;-0.100;2022-10-12T12:19:37;101341.26;;;14.93;49.77
61761;BME280;47664;51.660;-0.100;2022-10-12T12:22:17;101331.11;;;15.37;49.22
61761;BME280;47664;51.660;-0.100;2022-10-12T12:25:00;101325.16;;;15.24;49.96
61761;BME280;47664;51.660;-0.100;2022-10-12T12:27:41;101326.84;;;14.68;49.46
61761;BME280;47664;51.660;-0.100;2022-10-12T12:30:30;101321.52;;;14.37;50.61
61761;BME280;47664;51.660;-0.100;2022-10-12T12:33:27;101323.84;;;14.07;51.54
61761;BME280;47664;51.660;-0.100;2022-10-12T12:36:12;101308.95;;;14.65;50.36
61761;BME280;47664;51.660;-0.100;2022-10-12T12:38:54;101305.87;;;15.08;49.06
61761;BME280;47664;51.660;-0.100;2022-10-12T12:41:45;101303.29;;;15.40;49.21
61761;BME280;47664;51.660;-0.100;2022-10-12T12:44:41;101300.14;;;15.02;49.44
61761;BME280;47664;51.660;-0.100;2022-10-12T12:47:21;101304.62;;;15.11;49.88
61761;BME280;47664;51.660;-0.100;2022-10-12T12:50:49;101301.92;;;14.71;50.87
61761;BME280;47664;51.660;-0.100;2022-10-12T12:53:26;101293.58;;;14.75;51.46
61761;BME280;47664;51.660;-0.100;2022-10-12T12:56:06;101287.30;;;15.07;50.56
61761;BME280;47664;51.660;-0.100;2022-10-12T12:58:59;101287.78;;;15.11;50.52
61761;BME280;47664;51.660;-0.100;2022-10-12T13:01:57;101289.18;;;14.90;50.42
61761;BME280;47664;51.660;-0.100;2022-10-12T13:04:54;101286.84;;;15.15;50.32
61761;BME280;47664;51.660;-0.100;2022-10-12T13:07:53;101280.23;;;15.23;49.89
61761;BME280;47664;51.660;-0.100;2022-10-12T13:10:46;101277.04;;;14.80;51.79
61761;BME280;47664;51.660;-0.100;2022-10-12T13:13:37;101276.63;;;14.52;51.84
61761;BME280;47664;51.660;-0.100;2022-10-12T13:16:31;101278.48;;;14.31;52.38
61761;BME280;47664;51.660;-0.100;2022-10-12T13:19:15;101267.31;;;14.80;51.25
61761;BME280;47664;51.660;-0.100;2022-10-12T13:21:54;101260.00;;;14.91;51.15
61761;BME280;47664;51.660;-0.100;2022-10-12T13:24:36;101261.96;;;15.14;51.13
61761;BME280;47664;51.660;-0.100;2022-10-12T13:27:23;101263.33;;;14.91;51.08
61761;BME280;47664;51.660;-0.100;2022-10-12T13:30:05;101267.20;;;15.47;50.46
61761;BME280;47664;51.660;-0.100;2022-10-12T13:32:50;101264.28;;;15.36;50.47
61761;BME280;47664;51.660;-0.100;2022-10-12T13:35:35;101263.91;;;15.17;51.24
61761;BME280;47664;51.660;-0.100;2022-10-12T13:38:24;101259.39;;;15.21;51.34
61761;BME280;47664;51.660;-0.100;2022-10-12T13:41:05;101257.12;;;15.80;49.60
61761;BME280;47664;51.660;-0.100;2022-10-12T13:43:50;101250.08;;;15.10;50.76
61761;BME280;47664;51.660;-0.100;2022-10-12T13:46:47;101250.36;;;15.04;49.98
61761;BME280;47664;51.660;-0.100;2022-10-12T13:49:27;101245.72;;;15.29;49.12
61761;BME280;47664;51.660;-0.100;2022-10-12T13:52:14;101244.79;;;15.04;50.14
61761;BME280;47664;51.660;-0.100;2022-10-12T13:54:54;101245.81;;;15.17;49.61
61761;BME280;47664;51.660;-0.100;2022-10-12T13:57:34;101248.01;;;14.99;50.40
61761;BME280;47664;51.660;-0.100;2022-10-12T14:00:23;101246.53;;;14.97;50.07
61761;BME280;47664;51.660;-0.100;2022-10-12T14:03:03;101245.69;;;15.18;50.43
61761;BME280;47664;51.660;-0.100;2022-10-12T14:05:47;101241.86;;;14.95;50.53